Time;durP1;ratioP1;P1;durP2;ratioP2;P2;SDS_P1;SDS_P2;PMS_P1;PMS_P2;Temp;Humidity;BMP_temperature;BMP_pressure;BME280_temperature;BME280_humidity;BME280_pressure;Samples;Min_cycle;Max_cycle;Signal;HPM_P1;HPM_P2
2021/06/14 06:44:17;;;;;;;1.83;1.70;;;;;;;20.66;45.76;97289.19;5109210;27;20543;-68
2021/06/14 06:46:43;;;;;;;2.47;1.67;;;;;;;20.21;47.03;97287.63;5109195;28;20272;-68
2021/06/14 06:49:43;;;;;;;2.08;1.73;;;;;;;20.09;46.96;97275.69;5136983;27;20325;-67
2021/06/14 06:54:29;;;;;;;1.73;1.63;;;;;;;20.27;46.76;97275.88;5107626;27;20659;-69
2021/06/14 06:56:55;;;;;;;2.15;1.60;;;;;;;20.25;46.94;97272.66;5107522;28;20330;-68
2021/06/14 06:59:22;;;;;;;10.02;2.80;;;;;;;19.57;47.06;97284.19;5108322;28;20180;-68
2021/06/14 07:01:48;;;;;;;3.40;2.17;;;;;;;19.74;47.65;97272.16;5104727;28;20190;-66
2021/06/14 07:04:13;;;;;;;7.07;2.40;;;;;;;20.12;47.07;97281.25;5107537;28;20179;-67
2021/06/14 07:06:39;;;;;;;4.40;1.80;;;;;;;19.96;46.30;97278.97;5108285;28;20184;-69
2021/06/14 07:13:12;;;;;;;4.88;2.08;;;;;;;20.12;45.92;97275.13;5136473;27;20795;-68
2021/06/14 07:15:37;;;;;;;2.55;1.83;;;;;;;20.21;45.96;97284.16;5129263;28;20191;-68
2021/06/14 07:20:33;;;;;;;3.30;1.60;;;;;;;19.70;48.14;97275.63;5123730;27;20626;-68
2021/06/14 07:26:36;;;;;;;3.58;1.50;;;;;;;20.62;46.38;97285.47;5081543;28;20578;-68
2021/06/14 07:29:02;;;;;;;1.75;1.58;;;;;;;20.56;46.30;97286.59;5066519;28;20267;-68
2021/06/14 07:35:18;;;;;;;3.20;1.80;;;;;;;20.54;46.33;97282.63;5119057;27;20552;-67
2021/06/14 07:39:58;;;;;;;2.70;1.65;;;;;;;20.38;46.59;97287.28;5142313;27;790838;-67
2021/06/14 07:44:12;;;;;;;2.05;1.65;;;;;;;20.40;46.96;97271.78;5167864;27;20922;-69
2021/06/14 07:47:59;;;;;;;4.97;1.88;;;;;;;20.45;46.81;97276.31;5130521;27;20333;-68
2021/06/14 08:28:12;;;;;;;2.13;1.80;;;;;;;22.67;43.01;97263.09;5157139;27;99518;-69
2021/06/14 08:31:15;;;;;;;1.98;1.75;;;;;;;22.69;42.73;97276.13;5147339;27;20318;-68
2021/06/14 09:43:47;;;;;;;1.52;1.30;;;;;;;23.23;37.77;97232.72;5166529;27;20504;-70
2021/06/14 09:48:21;;;;;;;1.77;1.33;;;;;;;23.03;39.21;97225.06;5109679;27;21151;-69
2021/06/14 09:50:48;;;;;;;1.73;1.63;;;;;;;23.03;37.88;97233.88;5068113;28;20181;-69
2021/06/14 09:55:07;;;;;;;1.63;1.50;;;;;;;23.01;37.83;97228.06;5124088;27;20584;-69
2021/06/14 09:57:32;;;;;;;1.23;1.13;;;;;;;23.12;37.39;97220.63;5103075;28;20279;-69
2021/06/14 10:00:13;;;;;;;1.88;1.67;;;;;;;23.02;37.66;97226.94;5087317;28;20318;-69
2021/06/14 10:03:38;;;;;;;2.20;1.20;;;;;;;23.16;37.13;97224.28;5120527;27;20544;-69
2021/06/14 10:07:50;;;;;;;1.65;1.52;;;;;;;23.32;37.89;97216.75;5142051;27;20512;-69
2021/06/14 10:10:25;;;;;;;2.75;1.27;;;;;;;23.37;38.02;97211.31;5128294;27;20187;-69
2021/06/14 10:12:56;;;;;;;2.05;1.25;;;;;;;23.45;38.20;97214.09;5129069;27;20549;-70
2021/06/14 10:18:29;;;;;;;2.30;1.45;;;;;;;23.15;39.06;97188.72;5024024;27;21090;-69
2021/06/14 10:20:55;;;;;;;1.98;1.77;;;;;;;23.18;39.04;97198.06;5013690;28;20194;-67
2021/06/14 10:26:53;;;;;;;1.33;1.30;;;;;;;23.06;39.17;97184.38;5120246;27;20555;-69
2021/06/14 10:29:19;;;;;;;3.03;2.05;;;;;;;23.36;37.68;97189.13;5051523;28;20505;-69
2021/06/14 10:31:47;;;;;;;1.40;1.30;;;;;;;23.32;35.54;97190.81;5094083;28;20334;-69
2021/06/14 10:36:00;;;;;;;1.60;1.50;;;;;;;23.36;37.35;97183.75;5148877;27;20334;-69
2021/06/14 10:38:39;;;;;;;2.17;1.60;;;;;;;23.42;37.47;97169.19;5106411;27;21074;-70
2021/06/14 10:41:05;;;;;;;3.47;1.83;;;;;;;23.36;38.06;97178.41;5070629;28;20536;-69
2021/06/14 10:44:24;;;;;;;2.35;1.38;;;;;;;23.25;38.25;97162.84;5085044;28;20868;-69
2021/06/14 10:46:49;;;;;;;2.10;1.90;;;;;;;23.31;38.10;97167.81;5078970;28;20272;-69
2021/06/14 10:49:16;;;;;;;1.50;1.40;;;;;;;23.37;37.52;97161.28;5053370;28;20311;-69
2021/06/14 10:51:44;;;;;;;1.60;1.50;;;;;;;23.37;37.53;97155.91;5049821;28;20174;-69
2021/06/14 10:55:35;;;;;;;2.33;1.40;;;;;;;23.14;38.45;97156.94;5166193;27;89200;-68
2021/06/14 10:59:18;;;;;;;2.05;1.60;;;;;;;23.14;37.76;97156.94;5103111;27;20625;-70
2021/06/14 11:03:37;;;;;;;1.38;1.27;;;;;;;22.96;36.37;97161.28;5123940;27;20542;-69
2021/06/14 11:06:23;;;;;;;1.52;1.42;;;;;;;23.04;37.54;97159.81;5107487;28;20685;-69
2021/06/14 11:09:01;;;;;;;2.22;1.50;;;;;;;23.10;37.51;97154.06;5098787;28;20689;-69
2021/06/14 11:11:27;;;;;;;1.55;1.45;;;;;;;23.36;37.36;97148.97;5096275;28;20182;-69
2021/06/14 11:13:53;;;;;;;2.40;1.67;;;;;;;23.33;36.79;97144.25;5091332;28;20176;-70
2021/06/14 11:16:20;;;;;;;2.15;1.67;;;;;;;23.56;36.74;97132.53;5103428;28;20176;-69
2021/06/14 11:18:47;;;;;;;1.63;1.30;;;;;;;23.63;33.45;97140.13;5107935;28;20253;-69
2021/06/14 11:21:18;;;;;;;1.60;1.50;;;;;;;23.82;34.55;97127.41;5091695;28;20184;-69
2021/06/14 11:23:47;;;;;;;2.03;1.33;;;;;;;23.63;34.45;97135.56;5092842;28;20199;-69
2021/06/14 11:26:28;;;;;;;2.20;1.20;;;;;;;23.72;34.40;97133.00;5102060;28;20168;-68
2021/06/14 11:28:54;;;;;;;1.27;1.17;;;;;;;23.69;32.51;97132.78;5108038;28;20196;-69
2021/06/14 11:31:26;;;;;;;2.10;1.10;;;;;;;23.56;33.26;97129.88;5094283;28;20177;-68
2021/06/14 11:33:54;;;;;;;1.50;1.40;;;;;;;23.67;34.03;97124.28;5101847;28;20213;-69
2021/06/14 11:36:23;;;;;;;1.58;1.40;;;;;;;23.88;34.56;97120.84;5097135;28;20172;-68
2021/06/14 11:38:50;;;;;;;1.10;1.10;;;;;;;23.91;33.49;97114.84;5105907;28;20204;-69
2021/06/14 11:41:28;;;;;;;1.88;1.17;;;;;;;23.76;33.23;97109.88;5091448;28;20177;-69
2021/06/14 11:44:24;;;;;;;2.17;1.15;;;;;;;23.56;32.77;97108.44;5092021;28;20295;-69
2021/06/14 11:46:59;;;;;;;2.65;1.38;;;;;;;23.93;34.35;97103.84;5105063;28;20668;-73
2021/06/14 11:49:33;;;;;;;1.30;1.20;;;;;;;23.95;31.58;97102.47;5101805;28;20183;-70
2021/06/14 11:52:00;;;;;;;1.08;1.08;;;;;;;23.64;32.08;97101.56;5103880;28;20543;-69
2021/06/14 11:54:26;;;;;;;1.38;1.20;;;;;;;23.67;32.71;97092.16;5101753;28;20181;-70
2021/06/14 11:57:00;;;;;;;1.15;1.15;;;;;;;23.84;33.40;97086.94;5101217;28;20172;-71
2021/06/14 11:59:31;;;;;;;1.38;1.27;;;;;;;23.80;29.96;97094.78;5090438;28;20173;-70
2021/06/14 12:02:15;;;;;;;1.40;1.30;;;;;;;23.96;32.47;97087.94;5103720;28;20235;-70
2021/06/14 12:04:42;;;;;;;3.20;1.40;;;;;;;24.15;32.82;97087.78;5106446;28;20180;-70
2021/06/14 12:07:08;;;;;;;1.50;1.40;;;;;;;24.36;34.40;97077.34;5090395;28;20173;-71
2021/06/14 12:09:39;;;;;;;1.45;1.35;;;;;;;24.52;33.55;97075.84;5102775;28;20173;-71
2021/06/14 12:12:05;;;;;;;1.23;1.13;;;;;;;24.39;34.06;97088.25;5095189;28;20204;-71
2021/06/14 12:14:34;;;;;;;2.42;1.52;;;;;;;24.42;33.27;97079.59;5096641;28;20173;-71
2021/06/14 12:17:02;;;;;;;2.88;1.50;;;;;;;24.40;34.04;97075.66;5075829;28;20558;-68
2021/06/14 12:19:33;;;;;;;1.95;1.30;;;;;;;24.53;33.40;97074.75;5078131;28;20247;-70
2021/06/14 12:22:06;;;;;;;2.60;1.38;;;;;;;24.73;34.05;97078.78;5083162;28;20200;-69
2021/06/14 12:24:36;;;;;;;1.35;1.23;;;;;;;24.72;33.88;97074.53;5078747;28;20177;-70
2021/06/14 12:27:07;;;;;;;1.40;1.30;;;;;;;24.86;34.47;97081.34;5083795;28;20299;-71
2021/06/14 12:29:34;;;;;;;1.67;1.50;;;;;;;24.96;33.55;97077.63;5086732;28;20558;-70
2021/06/14 12:32:06;;;;;;;2.58;1.35;;;;;;;25.06;33.13;97069.28;5077874;28;20271;-70
2021/06/14 12:34:33;;;;;;;2.65;1.30;;;;;;;25.15;33.91;97070.09;5087987;28;20256;-71
2021/06/14 12:37:08;;;;;;;1.15;1.15;;;;;;;25.12;33.28;97065.34;5081639;28;20525;-70
2021/06/14 12:39:34;;;;;;;1.90;1.30;;;;;;;25.04;34.28;97060.75;5079307;28;20541;-71
2021/06/14 12:42:01;;;;;;;1.30;1.20;;;;;;;25.02;32.58;97051.47;5084874;28;20200;-69
2021/06/14 12:44:26;;;;;;;3.88;1.30;;;;;;;24.68;32.65;97052.13;5077748;28;20725;-70
2021/06/14 12:46:52;;;;;;;1.23;1.23;;;;;;;24.67;33.48;97047.84;5085448;28;20211;-70
2021/06/14 12:49:32;;;;;;;1.45;1.27;;;;;;;24.90;32.56;97049.38;5083894;28;20201;-70
2021/06/14 12:51:57;;;;;;;1.40;1.17;;;;;;;24.99;31.50;97049.38;5077198;28;20657;-70
2021/06/14 12:54:24;;;;;;;1.15;1.13;;;;;;;24.96;31.99;97040.09;5074873;28;20686;-70
2021/06/14 12:57:00;;;;;;;3.80;1.58;;;;;;;25.10;33.21;97040.72;5076932;28;20180;-68
2021/06/14 12:59:26;;;;;;;1.10;1.10;;;;;;;25.04;31.32;97041.19;5076973;28;20185;-70
2021/06/14 13:01:52;;;;;;;1.20;1.10;;;;;;;25.00;31.02;97038.34;5089702;28;20232;-69
2021/06/14 13:04:17;;;;;;;5.47;1.27;;;;;;;25.12;31.97;97051.16;5106308;28;20213;-69
2021/06/14 13:06:43;;;;;;;2.55;1.08;;;;;;;25.21;32.66;97042.00;5100825;28;20175;-70
2021/06/14 13:09:09;;;;;;;1.10;1.00;;;;;;;25.19;32.09;97035.34;5104919;28;20210;-70
2021/06/14 13:11:46;;;;;;;4.60;1.30;;;;;;;25.00;32.16;97040.25;5107177;28;20679;-71
2021/06/14 13:14:12;;;;;;;1.60;1.50;;;;;;;24.93;32.26;97037.22;5097431;28;20608;-70
2021/06/14 13:16:50;;;;;;;1.00;1.00;;;;;;;24.75;32.42;97039.81;5109302;28;20489;-70
2021/06/14 13:19:23;;;;;;;1.77;1.17;;;;;;;24.71;32.58;97038.88;5097999;28;20226;-70
2021/06/14 13:21:48;;;;;;;1.50;1.40;;;;;;;25.01;33.17;97031.09;5101580;28;20199;-70
2021/06/14 13:24:14;;;;;;;2.83;1.30;;;;;;;25.17;33.11;97024.97;5102793;28;20172;-69
2021/06/14 13:26:43;;;;;;;1.33;1.02;;;;;;;25.13;32.26;97018.63;5103139;28;20172;-70
2021/06/14 13:29:28;;;;;;;1.10;1.00;;;;;;;24.92;31.67;97023.00;5095020;28;20541;-70
2021/06/14 13:32:05;;;;;;;1.17;1.08;;;;;;;25.08;32.20;97017.97;5109645;28;20168;-70
2021/06/14 13:34:31;;;;;;;1.45;1.17;;;;;;;25.10;33.17;97023.84;5104160;28;20224;-70
2021/06/14 13:36:57;;;;;;;1.23;1.13;;;;;;;24.97;33.18;97022.88;5098241;28;20180;-70
2021/06/14 13:39:29;;;;;;;1.80;1.42;;;;;;;24.89;33.42;97022.84;5105952;28;20267;-69
2021/06/14 13:42:04;;;;;;;1.40;1.30;;;;;;;25.12;33.39;97014.38;5106313;28;20663;-70
2021/06/14 13:44:30;;;;;;;2.03;1.20;;;;;;;25.26;33.62;97008.84;5102625;28;20259;-69
2021/06/14 13:46:56;;;;;;;1.70;1.48;;;;;;;25.19;33.13;97005.84;5100433;28;20667;-70
2021/06/14 13:49:34;;;;;;;1.85;1.20;;;;;;;25.08;32.90;97008.03;5106645;28;20443;-70
2021/06/14 13:52:04;;;;;;;1.60;1.50;;;;;;;25.17;32.90;97008.06;5100232;28;20176;-69
2021/06/14 13:54:31;;;;;;;1.30;1.20;;;;;;;25.05;33.02;96994.47;5109349;28;20214;-70
2021/06/14 13:56:56;;;;;;;1.40;1.20;;;;;;;25.02;33.29;97003.94;5105546;28;20164;-69
2021/06/14 13:59:29;;;;;;;1.40;1.30;;;;;;;25.12;32.95;97006.34;5101243;28;20172;-70
2021/06/14 14:01:58;;;;;;;1.30;1.30;;;;;;;25.00;32.64;97003.47;5098477;28;20314;-70
2021/06/14 14:04:31;;;;;;;1.92;1.50;;;;;;;25.01;33.31;96996.22;5101531;28;20607;-70
2021/06/14 14:06:59;;;;;;;1.13;1.10;;;;;;;25.22;33.07;96999.88;5100084;28;20168;-70
2021/06/14 14:09:28;;;;;;;1.60;1.50;;;;;;;25.37;32.92;96993.22;5100988;28;20183;-70
2021/06/14 14:11:56;;;;;;;1.50;1.40;;;;;;;25.22;32.95;96997.97;5103332;28;20176;-71
2021/06/14 14:14:23;;;;;;;1.30;1.20;;;;;;;25.06;33.01;96990.69;5105867;28;20168;-70
2021/06/14 14:16:51;;;;;;;1.45;1.30;;;;;;;25.04;32.88;96990.22;5107244;28;20176;-71
2021/06/14 14:19:22;;;;;;;1.10;1.10;;;;;;;24.96;33.27;96986.44;5102669;28;20220;-70
2021/06/14 14:21:49;;;;;;;1.35;1.25;;;;;;;24.86;32.89;96981.31;5095085;28;20232;-70
2021/06/14 14:24:16;;;;;;;1.10;1.10;;;;;;;24.97;33.11;96979.94;5099704;28;20172;-70
2021/06/14 14:26:45;;;;;;;1.40;1.20;;;;;;;25.14;32.86;96985.31;5100575;28;20171;-70
2021/06/14 14:29:17;;;;;;;1.35;1.20;;;;;;;25.26;33.32;96977.44;5104852;28;20203;-70
2021/06/14 14:31:48;;;;;;;1.40;1.10;;;;;;;25.27;32.48;96978.22;5101906;28;20293;-71
2021/06/14 14:34:15;;;;;;;1.55;1.38;;;;;;;25.25;32.75;96970.50;5097867;28;20260;-70
2021/06/14 14:36:53;;;;;;;1.73;1.55;;;;;;;25.24;33.58;96976.19;5100234;28;20594;-70
2021/06/14 14:39:28;;;;;;;1.50;1.40;;;;;;;25.33;33.07;96971.59;5106511;28;20204;-70
2021/06/14 14:41:54;;;;;;;1.60;1.20;;;;;;;25.27;32.75;96981.72;5100762;28;20191;-70
2021/06/14 14:44:23;;;;;;;1.20;1.10;;;;;;;25.31;31.94;96978.38;5097047;28;20187;-70
2021/06/14 14:46:50;;;;;;;2.88;1.63;;;;;;;25.44;32.14;96974.75;5095133;28;20168;-71
2021/06/14 14:49:22;;;;;;;1.38;1.20;;;;;;;25.37;32.30;96977.91;5108693;28;20195;-70
2021/06/14 14:51:47;;;;;;;1.30;1.20;;;;;;;25.32;32.73;96972.72;5098670;28;20172;-71
2021/06/14 14:54:17;;;;;;;1.10;1.10;;;;;;;25.31;33.64;96967.66;5097224;28;20179;-70
2021/06/14 14:56:43;;;;;;;1.42;1.30;;;;;;;25.41;34.30;96960.06;5096668;28;20173;-72
2021/06/14 14:59:09;;;;;;;3.22;1.50;;;;;;;25.47;32.48;96966.84;5102665;28;20676;-71
2021/06/14 15:01:39;;;;;;;1.77;1.20;;;;;;;25.26;32.97;96968.59;5103496;28;20242;-71
2021/06/14 15:04:06;;;;;;;1.40;1.30;;;;;;;25.38;33.51;96963.38;5099452;28;20234;-69
2021/06/14 15:06:32;;;;;;;1.10;1.10;;;;;;;25.46;33.43;96965.28;5105447;28;20165;-70
2021/06/14 15:08:58;;;;;;;2.88;1.30;;;;;;;25.56;33.08;96962.31;5100904;28;20199;-71
2021/06/14 15:11:24;;;;;;;1.30;1.20;;;;;;;25.37;33.35;96961.81;5098922;28;20221;-70
2021/06/14 15:13:50;;;;;;;2.25;1.10;;;;;;;25.44;33.66;96955.97;5098484;28;20176;-71
2021/06/14 15:16:16;;;;;;;1.58;1.33;;;;;;;25.66;33.63;96953.13;5100483;28;20171;-73
2021/06/14 15:18:45;;;;;;;1.27;1.15;;;;;;;25.67;34.52;96938.59;5096627;28;20192;-72
2021/06/14 15:21:11;;;;;;;1.80;1.70;;;;;;;25.73;33.44;96937.31;5103867;28;20176;-74
2021/06/14 15:23:37;;;;;;;1.45;1.20;;;;;;;25.75;33.17;96940.44;5104535;28;20553;-75
2021/06/14 15:26:09;;;;;;;1.77;1.08;;;;;;;25.65;32.36;96944.25;5099624;28;20172;-74
2021/06/14 15:28:35;;;;;;;2.08;1.30;;;;;;;25.72;32.49;96945.69;5098850;28;20200;-74
2021/06/14 15:31:02;;;;;;;1.60;1.50;;;;;;;25.66;32.32;96937.78;5106853;28;20180;-74
2021/06/14 15:33:27;;;;;;;1.60;1.50;;;;;;;25.65;32.76;96936.22;5101020;28;20206;-74
2021/06/14 15:35:55;;;;;;;1.45;1.30;;;;;;;25.86;32.71;96932.81;5094144;28;20278;-74
2021/06/14 15:38:21;;;;;;;1.50;1.40;;;;;;;25.88;32.07;96930.63;5101000;28;20212;-74
2021/06/14 15:40:47;;;;;;;1.10;1.05;;;;;;;25.70;31.92;96924.50;5096128;28;20177;-74
2021/06/14 15:43:13;;;;;;;1.00;1.00;;;;;;;25.44;32.54;96913.81;5096907;28;20197;-74
2021/06/14 15:45:39;;;;;;;1.20;1.10;;;;;;;25.36;32.61;96921.84;5098990;28;20176;-74
2021/06/14 15:48:06;;;;;;;1.38;1.27;;;;;;;25.70;33.46;96915.66;5103907;28;20667;-74
2021/06/14 15:50:33;;;;;;;1.55;1.45;;;;;;;25.73;32.67;96915.81;5106775;28;20546;-74
2021/06/14 15:52:59;;;;;;;1.90;1.33;;;;;;;25.64;33.49;96913.16;5105892;28;20165;-74
2021/06/14 15:55:25;;;;;;;1.35;1.25;;;;;;;25.70;33.05;96916.44;5108175;27;20668;-74
2021/06/14 15:57:52;;;;;;;1.95;1.15;;;;;;;25.71;33.32;96918.03;5102044;28;20208;-74
2021/06/14 16:00:20;;;;;;;2.25;1.20;;;;;;;25.61;33.24;96915.69;5101366;28;20656;-74
2021/06/14 16:02:46;;;;;;;1.55;1.30;;;;;;;25.66;32.83;96907.47;5103912;28;20304;-74
2021/06/14 16:05:13;;;;;;;1.98;1.42;;;;;;;25.76;32.71;96909.00;5103023;28;20172;-74
2021/06/14 16:07:39;;;;;;;1.30;1.08;;;;;;;25.84;33.07;96903.63;5101141;28;20702;-74
2021/06/14 16:10:06;;;;;;;1.38;1.10;;;;;;;25.91;32.30;96903.91;5102068;28;20164;-71
2021/06/14 16:12:32;;;;;;;1.50;1.40;;;;;;;25.72;32.53;96898.13;5103934;28;20624;-74
2021/06/14 16:14:58;;;;;;;2.42;1.20;;;;;;;25.67;32.19;96895.63;5103887;28;20633;-70
2021/06/14 16:17:24;;;;;;;1.20;1.10;;;;;;;25.51;32.67;96889.97;5101674;28;20192;-70
2021/06/14 16:19:49;;;;;;;1.42;1.30;;;;;;;25.75;32.88;96886.72;5110460;28;20169;-71
2021/06/14 16:22:15;;;;;;;1.58;1.20;;;;;;;25.99;32.92;96880.81;5106378;28;20234;-71
2021/06/14 16:24:41;;;;;;;1.42;1.30;;;;;;;26.20;33.83;96884.31;5105482;28;20172;-71
2021/06/14 16:27:08;;;;;;;1.70;1.35;;;;;;;26.07;32.16;96880.00;5098607;28;20266;-71
2021/06/14 16:29:33;;;;;;;1.10;1.00;;;;;;;26.25;32.29;96881.47;5104108;28;20176;-72
2021/06/14 16:31:59;;;;;;;1.20;1.13;;;;;;;26.07;32.51;96885.34;5101811;28;20172;-74
2021/06/14 16:34:24;;;;;;;1.20;1.20;;;;;;;25.98;32.70;96880.00;5100657;28;20281;-73
2021/06/14 16:36:52;;;;;;;1.40;1.27;;;;;;;25.72;32.76;96883.91;5108061;28;20899;-72
2021/06/14 16:39:17;;;;;;;1.45;1.30;;;;;;;25.71;33.03;96882.34;5095306;28;20572;-73
2021/06/14 16:41:43;;;;;;;1.63;1.50;;;;;;;25.58;33.64;96879.53;5108979;28;20197;-73
2021/06/14 16:44:08;;;;;;;1.30;1.23;;;;;;;25.78;33.78;96883.41;5101187;28;20180;-72
2021/06/14 16:46:38;;;;;;;1.30;1.20;;;;;;;25.58;33.99;96881.41;5101761;28;20172;-73
2021/06/14 16:49:04;;;;;;;1.30;1.23;;;;;;;25.72;33.39;96891.97;5099051;28;20196;-73
2021/06/14 16:51:32;;;;;;;1.70;1.35;;;;;;;25.78;32.78;96888.78;5102205;28;20182;-73
2021/06/14 16:53:58;;;;;;;1.17;1.15;;;;;;;25.78;32.59;96888.00;5093399;28;20184;-72
2021/06/14 16:56:24;;;;;;;1.33;1.23;;;;;;;25.80;32.58;96883.88;5103634;28;20588;-72
2021/06/14 16:58:49;;;;;;;2.30;1.33;;;;;;;25.75;32.71;96883.25;5101241;28;20235;-73
2021/06/14 17:01:15;;;;;;;1.55;1.30;;;;;;;25.76;32.92;96882.94;5104920;28;20176;-73
2021/06/14 17:03:40;;;;;;;1.45;1.33;;;;;;;25.77;33.61;96887.22;5111525;28;20718;-72
2021/06/14 17:06:06;;;;;;;3.60;1.40;;;;;;;25.90;33.65;96893.50;5098029;28;20184;-72
2021/06/14 17:08:31;;;;;;;1.75;1.30;;;;;;;25.92;32.92;96896.63;5107540;28;20204;-72
2021/06/14 17:10:57;;;;;;;1.40;1.30;;;;;;;25.90;33.11;96885.44;5102766;28;20214;-73
2021/06/14 17:13:22;;;;;;;1.35;1.35;;;;;;;25.61;33.67;96889.63;5096957;28;20199;-73
2021/06/14 17:15:48;;;;;;;1.27;1.13;;;;;;;25.74;33.33;96885.19;5101599;28;20172;-73
2021/06/14 17:18:13;;;;;;;1.50;1.30;;;;;;;25.60;33.60;96887.25;5100444;28;20215;-72
2021/06/14 17:20:39;;;;;;;1.40;1.30;;;;;;;25.75;33.87;96891.31;5112230;28;20176;-72
2021/06/14 17:23:05;;;;;;;1.55;1.40;;;;;;;25.87;33.87;96894.91;5105683;28;20240;-72
2021/06/14 17:25:30;;;;;;;1.40;1.30;;;;;;;25.90;33.46;96894.28;5102179;28;20559;-72
2021/06/14 17:27:56;;;;;;;1.98;1.50;;;;;;;25.95;34.42;96891.41;5102815;28;20197;-72
2021/06/14 17:30:22;;;;;;;1.60;1.50;;;;;;;25.61;35.14;96888.84;5109339;28;20176;-66
2021/06/14 17:32:50;;;;;;;1.50;1.23;;;;;;;25.56;34.96;96883.66;5098460;28;20172;-72
2021/06/14 17:35:18;;;;;;;1.02;1.02;;;;;;;25.67;35.36;96885.69;5101633;28;20214;-73
2021/06/14 17:37:45;;;;;;;1.42;1.23;;;;;;;25.66;35.18;96883.31;5103611;28;20196;-73
2021/06/14 17:40:12;;;;;;;1.40;1.30;;;;;;;25.61;35.87;96886.16;5099332;28;20176;-70
2021/06/14 17:42:37;;;;;;;1.50;1.40;;;;;;;25.53;35.57;96887.72;5104851;28;20272;-73
2021/06/14 17:45:07;;;;;;;1.50;1.40;;;;;;;25.46;36.10;96889.34;5096351;28;20632;-71
2021/06/14 17:47:44;;;;;;;3.42;1.40;;;;;;;25.57;36.53;96890.59;5099993;28;20280;-73
2021/06/14 17:50:12;;;;;;;1.95;1.67;;;;;;;25.59;35.83;96894.53;5091305;28;20176;-70
2021/06/14 17:52:38;;;;;;;1.38;1.30;;;;;;;25.66;36.10;96889.47;5106174;28;20186;-71
2021/06/14 17:55:05;;;;;;;1.50;1.40;;;;;;;25.51;36.91;96891.84;5101171;28;20586;-71
2021/06/14 17:57:31;;;;;;;1.40;1.30;;;;;;;25.34;37.02;96884.63;5103867;28;20203;-71
2021/06/14 17:59:57;;;;;;;2.13;1.58;;;;;;;25.38;36.86;96882.88;5106088;28;20234;-68
2021/06/14 18:02:25;;;;;;;2.00;1.35;;;;;;;25.41;36.71;96882.22;5098045;28;20228;-76
2021/06/14 18:04:50;;;;;;;1.55;1.45;;;;;;;25.38;36.75;96882.06;5102825;28;20228;-71
2021/06/14 18:07:16;;;;;;;1.38;1.27;;;;;;;25.24;37.17;96882.28;5101366;28;20191;-68
2021/06/14 18:09:41;;;;;;;2.22;1.40;;;;;;;25.27;36.08;96878.94;5105231;28;20584;-72
2021/06/14 18:12:07;;;;;;;1.60;1.50;;;;;;;25.16;37.40;96875.81;5105934;28;20244;-71
2021/06/14 18:14:33;;;;;;;3.30;2.00;;;;;;;25.07;37.48;96880.41;5103016;28;20172;-69
2021/06/14 18:16:58;;;;;;;1.60;1.50;;;;;;;25.14;37.15;96875.31;5095927;28;20693;-71
2021/06/14 18:19:24;;;;;;;2.38;1.42;;;;;;;25.17;37.35;96873.91;5094979;28;20584;-70
2021/06/14 18:21:49;;;;;;;1.30;1.20;;;;;;;25.06;37.63;96883.41;5105312;28;20200;-69
2021/06/14 18:24:15;;;;;;;1.42;1.33;;;;;;;25.01;37.86;96880.88;5098434;28;20172;-71
2021/06/14 18:26:40;;;;;;;1.10;1.10;;;;;;;24.90;38.30;96869.69;5100145;28;20203;-66
2021/06/14 18:29:07;;;;;;;2.35;1.50;;;;;;;24.95;38.18;96876.78;5099604;28;20260;-72
2021/06/14 18:31:33;;;;;;;1.73;1.48;;;;;;;24.81;38.59;96872.31;5098541;28;20172;-72
2021/06/14 18:33:58;;;;;;;2.03;1.70;;;;;;;24.83;38.57;96872.00;5106543;28;20641;-72
2021/06/14 18:36:24;;;;;;;1.45;1.33;;;;;;;24.80;37.93;96869.94;5096625;28;20164;-72
2021/06/14 18:38:50;;;;;;;1.98;1.55;;;;;;;24.65;39.00;96876.56;5100378;28;20215;-72
2021/06/14 18:41:18;;;;;;;1.50;1.40;;;;;;;24.66;39.24;96878.16;5101967;28;20659;-70
2021/06/14 18:43:48;;;;;;;2.33;1.90;;;;;;;24.46;39.99;96875.31;5100092;28;20257;-71
2021/06/14 18:46:14;;;;;;;5.18;1.40;;;;;;;24.44;40.12;96875.63;5101375;28;20589;-71
2021/06/14 18:48:40;;;;;;;2.20;1.73;;;;;;;24.50;40.61;96876.25;5096629;28;20283;-71
2021/06/14 18:51:06;;;;;;;1.50;1.40;;;;;;;24.33;41.18;96871.66;5094923;28;20923;-70
2021/06/14 18:53:32;;;;;;;2.75;1.77;;;;;;;24.23;41.70;96883.47;5108319;28;20178;-71
2021/06/14 18:55:58;;;;;;;3.17;1.70;;;;;;;24.31;41.43;96882.69;5106059;28;20184;-71
2021/06/14 18:58:23;;;;;;;1.70;1.60;;;;;;;24.32;41.67;96883.47;5090797;28;20195;-71
2021/06/14 19:00:50;;;;;;;3.22;1.73;;;;;;;24.14;42.52;96887.16;5097183;28;20176;-71
2021/06/14 19:03:15;;;;;;;2.20;2.00;;;;;;;24.15;42.54;96881.50;5102571;28;20260;-72
2021/06/14 19:05:42;;;;;;;2.60;1.42;;;;;;;24.07;43.00;96893.00;5095035;28;20222;-72
2021/06/14 19:08:08;;;;;;;2.00;1.80;;;;;;;23.98;42.85;96892.16;5101661;28;20204;-72
2021/06/14 19:10:35;;;;;;;1.92;1.60;;;;;;;23.87;43.18;96891.66;5098407;28;20234;-72
2021/06/14 19:15:44;;;;;;;2.72;1.95;;;;;;;23.77;43.89;96883.09;5148903;27;20869;-72
2021/06/14 19:18:09;;;;;;;2.10;1.90;;;;;;;23.77;43.73;96886.56;5128064;28;20211;-72
2021/06/14 19:23:31;;;;;;;2.47;1.83;;;;;;;23.50;44.17;96892.91;5115312;27;20622;-73
2021/06/14 19:25:56;;;;;;;2.70;1.67;;;;;;;23.45;44.50;96895.69;5092879;28;20200;-73
2021/06/14 19:53:24;;;;;;;2.05;1.75;;;;;;;22.63;46.66;96927.22;5086097;28;20436;-66
2021/06/14 19:58:16;;;;;;;1.88;1.77;;;;;;;22.70;46.34;96930.28;5136598;27;20876;-72
2021/06/14 20:05:21;;;;;;;1.95;1.75;;;;;;;22.59;46.62;96937.75;5145195;27;20315;-70
2021/06/14 20:15:03;;;;;;;1.98;1.50;;;;;;;22.30;47.81;96937.28;5087481;27;20559;-69
2021/06/14 20:17:28;;;;;;;2.58;1.92;;;;;;;22.48;47.06;96939.03;5081123;28;20763;-69
2021/06/14 20:21:35;;;;;;;3.72;1.95;;;;;;;22.26;47.74;96945.09;5107465;27;20635;-71
2021/06/14 20:26:22;;;;;;;3.17;1.90;;;;;;;22.16;48.44;96944.50;5146800;27;21115;-70
2021/06/14 20:34:44;;;;;;;2.67;1.90;;;;;;;22.17;48.62;96944.22;5140778;27;20680;-68
2021/06/14 20:37:10;;;;;;;3.10;1.70;;;;;;;22.11;48.65;96947.28;5115231;28;20189;-71
2021/06/14 20:42:08;;;;;;;3.28;2.05;;;;;;;22.14;48.91;96947.47;5109087;27;20565;-68
2021/06/14 20:48:07;;;;;;;1.95;1.50;;;;;;;21.92;49.23;96952.66;5140069;27;20320;-70
2021/06/14 20:55:14;;;;;;;2.10;1.85;;;;;;;22.03;49.35;96947.94;5088450;27;20619;-66
2021/06/14 20:57:41;;;;;;;1.70;1.60;;;;;;;22.07;48.97;96948.97;5087866;28;20330;-70
2021/06/14 21:00:09;;;;;;;2.92;2.15;;;;;;;22.01;49.27;96944.81;5087546;28;20272;-70
2021/06/14 21:02:36;;;;;;;1.80;1.60;;;;;;;22.15;49.17;96950.94;5088501;28;20187;-68
2021/06/14 21:06:12;;;;;;;1.77;1.67;;;;;;;22.10;48.46;96948.34;5087638;28;20701;-69
2021/06/14 21:10:50;;;;;;;3.28;1.70;;;;;;;22.17;49.07;96948.75;5147098;27;20382;-68
2021/06/14 21:13:15;;;;;;;2.08;1.80;;;;;;;22.18;48.92;96945.00;5110495;28;20320;-68
2021/06/14 21:17:21;;;;;;;4.25;1.92;;;;;;;22.05;49.06;96946.59;5135192;27;20316;-68
2021/06/14 21:19:48;;;;;;;2.15;1.60;;;;;;;22.09;48.87;96950.22;5128592;28;20632;-69
2021/06/14 21:22:14;;;;;;;4.47;2.10;;;;;;;22.01;49.49;96942.13;5128175;28;20195;-68
2021/06/14 21:24:39;;;;;;;3.38;1.63;;;;;;;21.98;49.47;96959.53;5128239;28;20185;-68
2021/06/14 21:27:55;;;;;;;2.00;1.80;;;;;;;21.86;49.78;96954.63;5068580;28;20557;-68
2021/06/14 21:30:21;;;;;;;1.77;1.67;;;;;;;21.90;49.04;96955.63;5067298;28;20700;-65
2021/06/14 21:32:49;;;;;;;3.13;1.80;;;;;;;21.79;49.66;96954.22;5067347;28;20645;-69
2021/06/14 21:37:45;;;;;;;2.53;1.90;;;;;;;21.61;50.24;96963.09;5067024;28;20620;-68
2021/06/14 21:43:08;;;;;;;1.95;1.75;;;;;;;21.62;50.45;96967.34;5120445;27;20363;-68
2021/06/14 21:48:38;;;;;;;2.05;1.85;;;;;;;21.42;51.03;96952.44;5149151;27;20391;-69
2021/06/14 21:53:12;;;;;;;1.90;1.80;;;;;;;21.26;51.52;96967.09;5121322;27;20315;-68
2021/06/14 21:55:38;;;;;;;1.67;1.58;;;;;;;21.16;51.55;96964.59;5108529;28;20184;-68
2021/06/14 21:59:38;;;;;;;2.15;1.50;;;;;;;21.17;51.62;96960.84;5067635;28;20648;-68
2021/06/14 22:04:38;;;;;;;3.10;2.10;;;;;;;20.86;52.74;96955.13;5140578;27;20323;-68
2021/06/14 22:08:46;;;;;;;1.77;1.67;;;;;;;20.73;52.97;96953.19;5120568;27;20631;-68
2021/06/14 22:11:12;;;;;;;1.98;1.73;;;;;;;20.69;53.21;96954.81;5088686;28;20588;-68
2021/06/14 22:15:25;;;;;;;3.38;2.25;;;;;;;20.63;53.21;96951.44;5123801;27;20307;-68
2021/06/14 22:23:17;;;;;;;1.90;1.80;;;;;;;20.48;53.81;96934.88;5088518;28;20628;-68
2021/06/14 22:25:42;;;;;;;3.08;1.80;;;;;;;20.43;53.54;96941.06;5088034;28;20762;-68